createdAt,value
2023-01-07T00:01:10.779Z,51.2
2023-01-07T00:06:28.734Z,51.8
2023-01-07T00:11:47.607Z,51.1
2023-01-07T00:17:05.832Z,51.4
2023-01-07T00:22:24.307Z,51.5
2023-01-07T00:27:42.663Z,50.7
2023-01-07T00:33:00.950Z,50.7
2023-01-07T00:38:19.215Z,51.7
2023-01-07T00:43:38.121Z,51.9
2023-01-07T00:48:56.598Z,51.9
2023-01-07T00:54:15.355Z,51.5
2023-01-07T00:59:33.696Z,51.1
2023-01-07T01:04:52.501Z,51.6
2023-01-07T01:10:11.017Z,51.1
2023-01-07T01:15:29.619Z,52.4
2023-01-07T01:20:48.464Z,51.6
2023-01-07T01:26:06.665Z,51.5
2023-01-07T01:31:25.186Z,51
2023-01-07T01:36:43.439Z,51.7
2023-01-07T01:42:01.922Z,51.3
2023-01-07T01:47:20.550Z,51.4
2023-01-07T01:52:39.144Z,51.8
2023-01-07T01:57:57.901Z,51.5
2023-01-07T02:03:16.771Z,51.4
2023-01-07T02:08:35.591Z,52.1
2023-01-07T02:13:54.058Z,52.7
2023-01-07T02:19:12.680Z,52.4
2023-01-07T02:24:31.240Z,52.3
2023-01-07T02:29:49.182Z,52.2
2023-01-07T02:35:07.503Z,51.8
2023-01-07T02:40:25.942Z,51.7
2023-01-07T02:45:44.292Z,52.5
2023-01-07T02:51:02.947Z,52.5
2023-01-07T02:56:21.649Z,51.9
2023-01-07T03:01:40.720Z,52
2023-01-07T03:06:59.398Z,51.8
2023-01-07T03:12:18.156Z,51.9
2023-01-07T03:17:36.926Z,52.3
2023-01-07T03:22:55.539Z,52.3
2023-01-07T03:28:14.024Z,51.8
2023-01-07T03:33:32.499Z,52.5
2023-01-07T03:38:51.383Z,52.2
2023-01-07T03:44:10.340Z,52.3
2023-01-07T03:49:29.115Z,52.9
2023-01-07T03:54:48.001Z,52.2
2023-01-07T04:00:06.602Z,52.2
2023-01-07T04:05:25.089Z,52.9
2023-01-07T04:10:43.424Z,52.2
2023-01-07T04:16:01.643Z,52.7
2023-01-07T04:21:19.835Z,53
2023-01-07T04:26:38.741Z,52.6
2023-01-07T04:31:57.426Z,53.3
2023-01-07T04:37:16.205Z,53.8
2023-01-07T04:42:35.109Z,52.8
2023-01-07T04:47:53.272Z,53.8
2023-01-07T04:53:11.758Z,53.6
2023-01-07T04:58:30.663Z,53
2023-01-07T05:03:49.341Z,53.4
2023-01-07T05:09:07.824Z,52.9
2023-01-07T05:14:26.465Z,53.3
2023-01-07T05:19:45.372Z,53.1
2023-01-07T05:25:03.844Z,52.2
2023-01-07T05:30:22.748Z,53.2
2023-01-07T05:35:40.972Z,53.2
2023-01-07T05:40:59.203Z,52.4
2023-01-07T05:46:18.129Z,53.1
2023-01-07T05:51:36.887Z,53.4
2023-01-07T05:56:55.103Z,53.1
2023-01-07T06:02:14.003Z,53.1
2023-01-07T06:07:32.364Z,53.5
2023-01-07T06:12:50.868Z,53.4
2023-01-07T06:18:09.173Z,52.5
2023-01-07T06:23:27.595Z,53.4
2023-01-07T06:28:46.342Z,53.3
2023-01-07T06:34:04.965Z,53
2023-01-07T06:39:23.283Z,53.2
2023-01-07T06:44:41.784Z,52.2
2023-01-07T06:49:50.297Z,52.4
2023-01-07T06:55:11.719Z,53.1
2023-01-07T07:00:30.289Z,53.5
2023-01-07T07:05:48.645Z,53
2023-01-07T07:11:07.139Z,53.1
2023-01-07T07:16:25.953Z,52.9
2023-01-07T07:21:44.971Z,52.7
2023-01-07T07:27:03.522Z,51.4
2023-01-07T07:32:22.005Z,50.8
2023-01-07T07:37:40.628Z,50.9
2023-01-07T07:43:13.544Z,51
2023-01-07T07:48:32.322Z,50.9
2023-01-07T07:53:50.925Z,50.1
2023-01-07T07:59:09.087Z,49.9
2023-01-07T08:04:27.530Z,49.8
2023-01-07T08:09:45.867Z,49.2
2023-01-07T08:15:04.140Z,49.5
2023-01-07T08:20:22.919Z,49.6
2023-01-07T08:25:41.247Z,49.3
2023-01-07T08:31:00.232Z,49.2
2023-01-07T08:36:24.042Z,49.5
2023-01-07T08:41:42.664Z,48.9
2023-01-07T08:47:02.102Z,49.5
2023-01-07T08:52:20.942Z,47
2023-01-07T08:57:23.840Z,40.3
2023-01-07T09:02:42.395Z,40.6
2023-01-07T09:08:01.186Z,39.6
2023-01-07T09:13:20.051Z,39.6
2023-01-07T09:18:38.697Z,40.2
2023-01-07T09:23:56.872Z,40.2
2023-01-07T09:29:15.205Z,39.1
2023-01-07T09:34:33.945Z,38.9
2023-01-07T09:39:52.707Z,39.9
2023-01-07T09:45:11.299Z,41.3
2023-01-07T09:50:29.820Z,42.9
2023-01-07T09:56:14.982Z,39.9
2023-01-07T10:01:33.931Z,41.3
2023-01-07T10:06:52.369Z,42
2023-01-07T10:12:10.828Z,43.2
2023-01-07T10:17:29.434Z,43
2023-01-07T10:22:47.634Z,42.6
2023-01-07T10:27:50.785Z,39.9
2023-01-07T10:33:09.395Z,42
2023-01-07T10:38:27.763Z,41.2
2023-01-07T10:43:51.779Z,43
2023-01-07T10:49:10.093Z,43.4
2023-01-07T10:54:29.200Z,43.2
2023-01-07T10:59:47.420Z,42.8
2023-01-07T11:05:06.300Z,42.8
2023-01-07T11:10:14.695Z,43
2023-01-07T11:15:17.572Z,42.5
2023-01-07T11:20:27.081Z,42.7
2023-01-07T11:25:46.103Z,42.3
2023-01-07T11:31:04.589Z,43.6
2023-01-07T11:36:07.394Z,43.8
2023-01-07T11:41:25.564Z,44.2
2023-01-07T11:46:44.357Z,44
2023-01-07T11:52:03.083Z,44.1
2023-01-07T11:57:26.792Z,44.5
2023-01-07T12:02:45.329Z,43.6
2023-01-07T12:08:04.248Z,45.1
2023-01-07T12:13:22.805Z,44.9
2023-01-07T12:18:41.297Z,44.6
2023-01-07T12:23:59.608Z,45.2
2023-01-07T12:29:18.204Z,44.8
2023-01-07T12:34:36.409Z,44.2
2023-01-07T12:39:57.593Z,44.5
2023-01-07T12:45:16.334Z,44.4
2023-01-07T12:50:38.210Z,41.2
2023-01-07T12:55:56.817Z,42.7
2023-01-07T13:01:16.018Z,41.2
2023-01-07T13:06:34.314Z,42.7
2023-01-07T13:11:52.624Z,42
2023-01-07T13:17:11.237Z,42.7
2023-01-07T13:22:29.732Z,42.5
2023-01-07T13:27:48.597Z,41.8
2023-01-07T13:33:07.517Z,41.6
2023-01-07T13:38:26.252Z,41.5
2023-01-07T13:43:44.587Z,42.5
2023-01-07T13:49:02.910Z,41.4
2023-01-07T13:54:21.804Z,42
2023-01-07T13:59:40.126Z,42.7
2023-01-07T14:04:58.585Z,42.8
2023-01-07T14:10:17.058Z,44.2
2023-01-07T14:15:35.516Z,44.2
2023-01-07T14:20:54.002Z,44.4
2023-01-07T14:25:56.579Z,45
2023-01-07T14:31:14.902Z,44.9
2023-01-07T14:36:33.107Z,45.2
2023-01-07T14:41:51.879Z,45.9
2023-01-07T14:47:10.491Z,46.1
2023-01-07T14:52:29.027Z,45.8
2023-01-07T14:57:47.813Z,46.3
2023-01-07T15:03:06.639Z,46.5
2023-01-07T15:08:25.922Z,46.6
2023-01-07T15:13:28.504Z,46.8
2023-01-07T15:18:31.220Z,46.5
2023-01-07T15:23:50.008Z,47
2023-01-07T15:28:53.176Z,46.2
2023-01-07T15:34:11.792Z,44.9
2023-01-07T15:39:30.210Z,44.2
2023-01-07T15:44:48.384Z,45.4
2023-01-07T15:50:07.056Z,46
2023-01-07T15:55:25.767Z,45.3
2023-01-07T16:00:44.253Z,45.5
2023-01-07T16:06:02.889Z,46.6
2023-01-07T16:11:21.439Z,47
2023-01-07T16:16:39.665Z,46.4
2023-01-07T16:21:58.593Z,46.7
2023-01-07T16:27:17.108Z,47.5
2023-01-07T16:32:35.588Z,46.9
2023-01-07T16:37:54.223Z,46.1
2023-01-07T16:43:12.376Z,46.9
2023-01-07T16:48:30.329Z,46.9
2023-01-07T16:53:48.633Z,46.7
2023-01-07T16:58:51.585Z,46.2
2023-01-07T17:04:09.631Z,47.2
2023-01-07T17:09:27.695Z,47.1
2023-01-07T17:14:45.968Z,46.3
2023-01-07T17:20:04.443Z,45.7
2023-01-07T17:25:23.331Z,46.3
2023-01-07T17:30:42.061Z,45.5
2023-01-07T17:36:00.545Z,45.1
2023-01-07T17:41:19.155Z,45.3
2023-01-07T17:46:37.638Z,44.9
2023-01-07T17:51:56.408Z,45.3
2023-01-07T17:57:14.728Z,44.3
2023-01-07T18:02:33.726Z,44.8
2023-01-07T18:07:51.902Z,44.5
2023-01-07T18:13:10.524Z,44.9
2023-01-07T18:18:29.082Z,45.9
2023-01-07T18:23:33.981Z,46
2023-01-07T18:28:52.565Z,45.6
2023-01-07T18:34:11.582Z,45.7
2023-01-07T18:39:30.342Z,45.6
2023-01-07T18:44:48.980Z,45.9
2023-01-07T18:50:07.744Z,45.6
2023-01-07T18:55:26.223Z,46.4
2023-01-07T19:00:29.497Z,45.7
2023-01-07T19:05:48.246Z,46.4
2023-01-07T19:11:06.717Z,46.8
2023-01-07T19:16:25.544Z,46
2023-01-07T19:21:44.145Z,45.9
2023-01-07T19:27:02.635Z,46
2023-01-07T19:32:21.509Z,46.2
2023-01-07T19:37:40.270Z,47
2023-01-07T19:42:58.719Z,46.2
2023-01-07T19:48:17.333Z,46.4
2023-01-07T19:53:35.592Z,46.9
2023-01-07T19:58:54.108Z,46.8
2023-01-07T20:04:12.687Z,47.4
2023-01-07T20:09:31.411Z,46.6
2023-01-07T20:14:49.892Z,47.4
2023-01-07T20:20:09.205Z,46.8
2023-01-07T20:25:27.595Z,47.3
2023-01-07T20:30:45.816Z,47.5
2023-01-07T20:36:04.709Z,47.5
2023-01-07T20:41:23.102Z,47
2023-01-07T20:46:41.880Z,47.7
2023-01-07T20:51:44.853Z,47.6
2023-01-07T20:57:03.453Z,47.7
2023-01-07T21:02:22.471Z,47.7
2023-01-07T21:07:41.266Z,47.6
2023-01-07T21:13:00.160Z,47.6
2023-01-07T21:18:18.641Z,47.3
2023-01-07T21:23:37.437Z,47.3
2023-01-07T21:28:56.771Z,47.9
2023-01-07T21:34:15.266Z,48
2023-01-07T21:39:33.594Z,48
2023-01-07T21:44:52.002Z,47.5
2023-01-07T21:50:10.227Z,48
2023-01-07T21:55:28.826Z,47.8
2023-01-07T22:00:47.562Z,48.1
2023-01-07T22:06:05.835Z,47.7
2023-01-07T22:11:08.554Z,48.4
2023-01-07T22:16:30.517Z,48.6
2023-01-07T22:21:48.999Z,48.1
2023-01-07T22:27:07.091Z,48.3
2023-01-07T22:32:25.213Z,47.8
2023-01-07T22:37:43.714Z,48.7
2023-01-07T22:43:02.299Z,48.3
2023-01-07T22:48:21.291Z,49
2023-01-07T22:53:39.501Z,48.8
2023-01-07T22:58:58.116Z,48.1
2023-01-07T23:04:17.140Z,48.8
2023-01-07T23:09:35.612Z,48.3
2023-01-07T23:14:54.214Z,48.8
2023-01-07T23:20:12.606Z,48.8
2023-01-07T23:25:31.359Z,48.2
2023-01-07T23:30:50.272Z,49.5
2023-01-07T23:36:09.164Z,49
2023-01-07T23:41:27.945Z,49
2023-01-07T23:46:46.188Z,49.5
2023-01-07T23:52:04.923Z,49.5
2023-01-07T23:57:23.153Z,48.9
